createdAt,value
2018-06-14T00:01:59.044Z,14.10
2018-06-14T00:04:31.107Z,14.13
2018-06-14T00:07:03.215Z,14.10
2018-06-14T00:09:35.293Z,14.13
2018-06-14T00:12:07.470Z,14.10
2018-06-14T00:14:39.598Z,14.05
2018-06-14T00:17:18.478Z,14.10
2018-06-14T00:19:50.535Z,14.08
2018-06-14T00:22:22.676Z,14.10
2018-06-14T00:24:54.767Z,14.07
2018-06-14T00:27:26.864Z,14.07
2018-06-14T00:29:59.057Z,14.01
2018-06-14T00:32:31.179Z,13.96
2018-06-14T00:35:03.298Z,13.98
2018-06-14T00:37:35.401Z,13.95
2018-06-14T00:40:07.531Z,14.02
2018-06-14T00:42:39.584Z,13.96
2018-06-14T00:45:11.657Z,13.89
2018-06-14T00:47:44.810Z,13.90
2018-06-14T00:50:16.911Z,13.90
2018-06-14T00:52:48.979Z,13.88
2018-06-14T00:55:21.053Z,13.89
2018-06-14T00:57:53.208Z,13.85
2018-06-14T01:00:25.307Z,13.79
2018-06-14T01:02:57.386Z,13.78
2018-06-14T01:05:29.483Z,13.78
2018-06-14T01:08:01.556Z,13.81
2018-06-14T01:10:33.655Z,13.77
2018-06-14T01:13:05.759Z,13.71
2018-06-14T01:15:37.812Z,13.74
2018-06-14T01:18:09.983Z,13.74
2018-06-14T01:20:42.451Z,13.68
2018-06-14T01:23:14.525Z,13.69
2018-06-14T01:25:46.683Z,13.62
2018-06-14T01:28:18.776Z,13.60
2018-06-14T01:30:50.895Z,13.68
2018-06-14T01:33:23.030Z,13.64
2018-06-14T01:35:55.076Z,13.64
2018-06-14T01:38:27.188Z,13.64
2018-06-14T01:40:59.277Z,13.60
2018-06-14T01:43:31.405Z,13.56
2018-06-14T01:46:03.508Z,13.63
2018-06-14T01:48:35.612Z,13.61
2018-06-14T01:51:07.733Z,13.58
2018-06-14T01:53:39.839Z,13.54
2018-06-14T01:56:11.943Z,13.55
2018-06-14T01:58:44.013Z,13.53
2018-06-14T02:01:16.085Z,13.54
2018-06-14T02:03:48.217Z,13.63
2018-06-14T02:06:20.268Z,13.51
2018-06-14T02:08:52.327Z,13.50
2018-06-14T02:11:24.380Z,13.47
2018-06-14T02:13:56.422Z,13.51
2018-06-14T02:16:28.572Z,13.47
2018-06-14T02:19:00.729Z,13.48
2018-06-14T02:21:32.802Z,13.47
2018-06-14T02:24:04.862Z,13.51
2018-06-14T02:26:36.912Z,13.52
2018-06-14T02:29:09.032Z,13.43
2018-06-14T02:31:41.107Z,13.46
2018-06-14T02:34:13.206Z,13.44
2018-06-14T02:36:45.275Z,13.44
2018-06-14T02:39:17.351Z,13.44
2018-06-14T02:41:49.464Z,13.46
2018-06-14T02:44:21.563Z,13.41
2018-06-14T02:46:53.679Z,13.46
2018-06-14T02:49:25.740Z,13.34
2018-06-14T02:51:57.794Z,13.40
2018-06-14T02:54:29.866Z,13.36
2018-06-14T02:57:01.977Z,13.39
2018-06-14T02:59:34.126Z,13.38
2018-06-14T03:02:06.210Z,13.41
2018-06-14T03:04:38.296Z,13.37
2018-06-14T03:07:10.414Z,13.36
2018-06-14T03:09:42.495Z,13.35
2018-06-14T03:12:14.572Z,13.40
2018-06-14T03:14:48.228Z,13.37
2018-06-14T03:17:20.957Z,13.38
2018-06-14T03:19:53.523Z,13.42
2018-06-14T03:22:26.155Z,13.40
2018-06-14T03:24:58.273Z,13.40
2018-06-14T03:27:30.396Z,13.39
2018-06-14T03:30:02.594Z,13.39
2018-06-14T03:32:34.732Z,13.46
2018-06-14T03:35:06.808Z,13.41
2018-06-14T03:37:38.885Z,13.46
2018-06-14T03:40:11.050Z,13.47
2018-06-14T03:42:44.193Z,13.55
2018-06-14T03:45:18.478Z,13.49
2018-06-14T03:47:50.816Z,13.44
2018-06-14T03:50:22.992Z,13.50
2018-06-14T03:52:55.090Z,13.48
2018-06-14T03:55:27.155Z,13.45
2018-06-14T03:57:59.228Z,13.50
2018-06-14T04:00:31.340Z,13.56
2018-06-14T04:03:03.410Z,13.63
2018-06-14T04:05:35.568Z,13.62
2018-06-14T04:08:07.653Z,13.63
2018-06-14T04:10:39.809Z,13.63
2018-06-14T04:13:11.888Z,13.66
2018-06-14T04:15:43.907Z,13.67
2018-06-14T04:18:15.986Z,13.68
2018-06-14T04:20:48.087Z,13.79
2018-06-14T04:23:20.119Z,13.79
2018-06-14T04:25:52.223Z,13.78
2018-06-14T04:28:24.284Z,13.74
2018-06-14T04:30:56.359Z,13.79
2018-06-14T04:33:28.403Z,13.89
2018-06-14T04:36:00.484Z,14.04
2018-06-14T04:38:32.557Z,14.00
2018-06-14T04:41:04.623Z,14.01
2018-06-14T04:43:36.775Z,14.08
2018-06-14T04:46:08.905Z,14.12
2018-06-14T04:48:41.323Z,14.00
2018-06-14T04:51:13.890Z,14.09
2018-06-14T04:53:45.997Z,14.06
2018-06-14T04:56:18.177Z,14.02
2018-06-14T04:58:50.256Z,14.14
2018-06-14T05:01:22.386Z,14.01
2018-06-14T05:03:54.677Z,14.01
2018-06-14T05:06:26.765Z,14.00
2018-06-14T05:08:58.873Z,14.27
2018-06-14T05:11:31.039Z,14.38
2018-06-14T05:14:03.173Z,14.43
2018-06-14T05:16:35.303Z,14.45
2018-06-14T05:19:07.421Z,14.48
2018-06-14T05:21:39.723Z,14.41
2018-06-14T05:24:11.792Z,14.42
2018-06-14T05:26:43.908Z,14.32
2018-06-14T05:29:16.009Z,14.34
2018-06-14T05:31:48.136Z,14.49
2018-06-14T05:34:20.272Z,14.74
2018-06-14T05:36:52.399Z,14.80
2018-06-14T05:39:24.533Z,14.85
2018-06-14T05:41:56.906Z,15.11
2018-06-14T05:44:29.007Z,15.23
2018-06-14T05:47:01.162Z,15.16
2018-06-14T05:49:33.399Z,15.26
2018-06-14T05:52:05.842Z,15.23
2018-06-14T05:54:38.047Z,15.12
2018-06-14T05:57:10.279Z,15.27
2018-06-14T05:59:42.382Z,15.26
2018-06-14T06:02:14.489Z,15.19
2018-06-14T06:04:46.618Z,14.97
2018-06-14T06:07:18.788Z,15.02
2018-06-14T06:09:50.964Z,14.86
2018-06-14T06:12:23.071Z,14.85
2018-06-14T06:14:55.177Z,14.86
2018-06-14T06:17:27.370Z,14.89
2018-06-14T06:19:59.444Z,14.87
2018-06-14T06:22:31.531Z,14.76
2018-06-14T06:25:03.642Z,14.97
2018-06-14T06:27:35.768Z,15.07
2018-06-14T06:30:07.852Z,15.03
2018-06-14T06:32:40.001Z,15.17
2018-06-14T06:35:12.105Z,14.96
2018-06-14T06:37:44.233Z,15.09
2018-06-14T06:40:16.324Z,15.27
2018-06-14T06:42:48.499Z,15.36
2018-06-14T06:45:20.584Z,15.55
2018-06-14T06:47:52.740Z,15.49
2018-06-14T06:50:24.864Z,15.42
2018-06-14T06:52:56.976Z,15.57
2018-06-14T06:55:29.104Z,15.72
2018-06-14T06:58:01.181Z,15.90
2018-06-14T07:00:33.228Z,16.11
2018-06-14T07:03:05.383Z,15.86
2018-06-14T07:05:37.514Z,15.66
2018-06-14T07:08:09.696Z,15.73
2018-06-14T07:10:41.784Z,16.11
2018-06-14T07:13:13.887Z,16.24
2018-06-14T07:15:45.930Z,16.29
2018-06-14T07:18:18.066Z,16.16
2018-06-14T07:20:50.156Z,16.21
2018-06-14T07:23:22.369Z,16.23
2018-06-14T07:25:54.462Z,16.61
2018-06-14T07:28:26.821Z,16.61
2018-06-14T07:30:58.900Z,16.86
2018-06-14T07:33:31.034Z,17.17
2018-06-14T07:36:03.143Z,17.68
2018-06-14T07:38:35.277Z,17.46
2018-06-14T07:41:07.416Z,17.53
2018-06-14T07:43:39.528Z,17.46
2018-06-14T07:46:11.583Z,17.86
2018-06-14T07:48:43.679Z,18.40
2018-06-14T07:51:15.805Z,19.02
2018-06-14T07:53:47.919Z,18.31
2018-06-14T07:56:20.027Z,18.07
2018-06-14T07:58:52.219Z,18.49
2018-06-14T08:01:24.288Z,18.58
2018-06-14T08:03:56.404Z,18.86
2018-06-14T08:06:28.709Z,19.04
2018-06-14T08:09:00.782Z,19.19
2018-06-14T08:11:32.848Z,19.94
2018-06-14T08:14:04.961Z,20.55
2018-06-14T08:16:37.074Z,20.44
2018-06-14T08:19:09.203Z,20.06
2018-06-14T08:21:41.357Z,19.65
2018-06-14T08:24:13.492Z,19.29
2018-06-14T08:26:45.557Z,19.54
2018-06-14T08:29:17.738Z,19.98
2018-06-14T08:31:49.833Z,20.42
2018-06-14T08:34:21.938Z,21.19
2018-06-14T08:36:54.047Z,21.24
2018-06-14T08:39:26.217Z,21.10
2018-06-14T08:41:58.444Z,20.79
2018-06-14T08:44:30.565Z,20.98
2018-06-14T08:47:02.718Z,20.20
2018-06-14T08:49:34.847Z,21.20
2018-06-14T08:52:06.961Z,21.75
2018-06-14T08:54:39.145Z,22.33
2018-06-14T08:57:11.256Z,23.56
2018-06-14T08:59:43.424Z,23.92
2018-06-14T09:02:15.636Z,22.97
2018-06-14T09:04:47.749Z,22.67
2018-06-14T09:07:19.862Z,21.72
2018-06-14T09:09:52.035Z,21.77
2018-06-14T09:12:24.135Z,21.09
2018-06-14T09:14:56.262Z,20.75
2018-06-14T09:17:28.404Z,21.46
2018-06-14T09:20:00.520Z,21.55
2018-06-14T09:22:32.641Z,21.83
2018-06-14T09:25:04.823Z,22.00
2018-06-14T09:27:36.974Z,22.10
2018-06-14T09:30:09.114Z,22.23
2018-06-14T09:32:41.240Z,21.98
2018-06-14T09:35:13.383Z,22.25
2018-06-14T09:37:45.517Z,21.76
2018-06-14T09:40:17.648Z,21.90
2018-06-14T09:42:49.771Z,21.72
2018-06-14T09:45:22.114Z,22.29
2018-06-14T09:47:54.202Z,22.53
2018-06-14T09:50:26.340Z,21.37
2018-06-14T09:52:58.376Z,21.65
2018-06-14T09:55:30.525Z,21.41
2018-06-14T09:58:02.627Z,21.21
2018-06-14T10:00:34.748Z,20.24
2018-06-14T10:03:06.831Z,20.61
2018-06-14T10:05:38.946Z,20.74
2018-06-14T10:08:10.996Z,20.33
2018-06-14T10:10:43.096Z,19.83
2018-06-14T10:13:15.204Z,19.22
2018-06-14T10:15:47.291Z,19.41
2018-06-14T10:18:19.404Z,19.43
2018-06-14T10:20:51.492Z,19.48
2018-06-14T10:23:23.548Z,19.80
2018-06-14T10:25:55.692Z,19.77
2018-06-14T10:28:27.748Z,20.11
2018-06-14T10:31:00.059Z,20.08
2018-06-14T10:33:32.175Z,20.05
2018-06-14T10:36:04.266Z,19.98
2018-06-14T10:38:36.427Z,20.16
2018-06-14T10:41:08.512Z,20.27
2018-06-14T10:43:40.573Z,20.01
2018-06-14T10:46:12.663Z,20.04
2018-06-14T10:48:44.739Z,20.43
2018-06-14T10:51:16.919Z,20.77
2018-06-14T10:53:49.032Z,20.41
2018-06-14T10:56:21.307Z,20.91
2018-06-14T10:58:53.415Z,21.23
2018-06-14T11:01:25.487Z,21.33
2018-06-14T11:03:57.556Z,21.10
2018-06-14T11:06:30.748Z,20.82
2018-06-14T11:09:04.426Z,20.05
2018-06-14T11:11:36.524Z,20.09
2018-06-14T11:14:08.603Z,20.05
2018-06-14T11:16:40.716Z,20.21
2018-06-14T11:19:12.752Z,20.78
2018-06-14T11:21:44.938Z,21.10
2018-06-14T11:24:17.025Z,21.35
2018-06-14T11:26:49.085Z,21.25
2018-06-14T11:29:21.204Z,21.43
2018-06-14T11:31:53.288Z,21.42
2018-06-14T11:34:25.308Z,21.66
2018-06-14T11:36:57.399Z,21.82
2018-06-14T11:39:29.537Z,21.95
2018-06-14T11:42:01.667Z,22.20
2018-06-14T11:44:33.780Z,21.83
2018-06-14T11:47:05.951Z,21.90
2018-06-14T11:49:38.048Z,22.15
2018-06-14T11:52:10.122Z,22.25
2018-06-14T11:54:42.188Z,22.17
2018-06-14T11:57:14.327Z,21.80
2018-06-14T11:59:51.549Z,21.85
2018-06-14T12:02:23.599Z,22.95
2018-06-14T12:04:55.656Z,23.50
2018-06-14T12:07:27.743Z,23.63
2018-06-14T12:09:59.800Z,23.55
2018-06-14T12:12:31.886Z,23.10
2018-06-14T12:15:04.028Z,23.54
2018-06-14T12:17:36.041Z,23.62
2018-06-14T12:20:08.127Z,24.43
2018-06-14T12:22:40.221Z,23.11
2018-06-14T12:25:12.330Z,24.02
2018-06-14T12:27:44.397Z,23.93
2018-06-14T12:30:16.471Z,23.80
2018-06-14T12:32:48.630Z,24.06
2018-06-14T12:35:20.707Z,24.11
2018-06-14T12:37:52.773Z,23.93
2018-06-14T12:40:24.847Z,25.24
2018-06-14T12:42:56.937Z,25.86
2018-06-14T12:45:29.027Z,24.37
2018-06-14T12:48:01.076Z,23.61
2018-06-14T12:50:33.148Z,23.93
2018-06-14T12:53:05.280Z,24.39
2018-06-14T12:55:37.350Z,24.89
2018-06-14T12:58:09.458Z,25.36
2018-06-14T13:00:41.547Z,26.17
2018-06-14T13:03:13.628Z,26.22
2018-06-14T13:05:45.706Z,26.43
2018-06-14T13:08:18.741Z,26.27
2018-06-14T13:10:50.848Z,24.47
2018-06-14T13:13:23.159Z,25.13
2018-06-14T13:15:55.216Z,24.60
2018-06-14T13:18:27.352Z,25.33
2018-06-14T13:20:59.424Z,24.86
2018-06-14T13:23:31.539Z,24.91
2018-06-14T13:26:03.660Z,24.04
2018-06-14T13:28:35.778Z,23.36
2018-06-14T13:31:07.940Z,23.83
2018-06-14T13:33:40.114Z,23.63
2018-06-14T13:36:12.225Z,23.66
2018-06-14T13:38:44.352Z,23.10
2018-06-14T13:41:16.488Z,23.01
2018-06-14T13:43:48.613Z,23.08
2018-06-14T13:46:20.772Z,23.32
2018-06-14T13:48:52.995Z,23.58
2018-06-14T13:51:24.993Z,23.14
2018-06-14T13:53:57.056Z,22.27
2018-06-14T13:56:31.240Z,22.94
2018-06-14T13:59:03.411Z,22.16
2018-06-14T14:01:35.498Z,22.48
2018-06-14T14:04:07.567Z,22.42
2018-06-14T14:06:39.925Z,22.34
2018-06-14T14:09:12.657Z,21.84
2018-06-14T14:11:44.779Z,21.78
2018-06-14T14:14:16.884Z,21.66
2018-06-14T14:16:48.976Z,21.36
2018-06-14T14:19:21.134Z,21.59
2018-06-14T14:21:53.159Z,21.55
2018-06-14T14:24:25.276Z,21.91
2018-06-14T14:26:57.328Z,21.64
2018-06-14T14:29:29.395Z,21.06
2018-06-14T14:32:01.494Z,20.97
2018-06-14T14:34:33.630Z,21.28
2018-06-14T14:37:05.783Z,20.99
2018-06-14T14:39:37.771Z,21.30
2018-06-14T14:42:09.871Z,21.15
2018-06-14T14:44:42.045Z,20.75
2018-06-14T14:47:14.097Z,20.84
2018-06-14T14:49:47.307Z,20.71
2018-06-14T14:52:20.364Z,20.69
2018-06-14T14:54:52.517Z,20.41
2018-06-14T14:57:24.602Z,20.17
2018-06-14T14:59:56.734Z,20.09
2018-06-14T15:02:28.857Z,20.25
2018-06-14T15:05:00.946Z,20.38
2018-06-14T15:07:33.008Z,20.21
2018-06-14T15:10:05.236Z,19.98
2018-06-14T15:12:37.330Z,19.96
2018-06-14T15:15:09.388Z,20.56
2018-06-14T15:17:41.431Z,20.97
2018-06-14T15:20:13.589Z,21.12
2018-06-14T15:22:45.704Z,21.19
2018-06-14T15:25:17.764Z,21.14
2018-06-14T15:27:49.957Z,20.84
2018-06-14T15:30:22.043Z,20.98
2018-06-14T15:32:54.181Z,21.14
2018-06-14T15:35:26.335Z,21.34
2018-06-14T15:37:58.391Z,21.84
2018-06-14T15:40:30.476Z,22.01
2018-06-14T15:43:02.545Z,22.19
2018-06-14T15:45:34.614Z,22.42
2018-06-14T15:48:06.693Z,22.98
2018-06-14T15:50:45.506Z,22.73
2018-06-14T15:53:17.593Z,23.12
2018-06-14T15:56:11.852Z,22.98
2018-06-14T15:58:43.921Z,22.24
2018-06-14T16:01:16.041Z,22.39
2018-06-14T16:03:48.150Z,21.93
2018-06-14T16:06:20.222Z,21.81
2018-06-14T16:08:52.644Z,21.82
2018-06-14T16:11:24.739Z,21.80
2018-06-14T16:13:56.822Z,21.47
2018-06-14T16:16:28.913Z,21.28
2018-06-14T16:19:01.016Z,21.11
2018-06-14T16:21:33.120Z,21.27
2018-06-14T16:24:05.241Z,21.76
2018-06-14T16:26:37.373Z,21.73
2018-06-14T16:29:09.416Z,21.79
2018-06-14T16:31:41.732Z,21.56
2018-06-14T16:34:13.787Z,21.29
2018-06-14T16:36:46.167Z,21.18
2018-06-14T16:39:19.743Z,21.36
2018-06-14T16:41:53.102Z,21.54
2018-06-14T16:44:25.250Z,21.76
2018-06-14T16:46:57.353Z,21.65
2018-06-14T16:49:29.448Z,21.87
2018-06-14T16:52:01.567Z,21.95
2018-06-14T16:54:33.627Z,22.01
2018-06-14T16:57:05.793Z,21.88
2018-06-14T16:59:37.852Z,21.68
2018-06-14T17:02:10.100Z,21.27
2018-06-14T17:04:42.204Z,21.46
2018-06-14T17:07:14.337Z,21.12
2018-06-14T17:09:46.577Z,20.76
2018-06-14T17:12:18.714Z,20.96
2018-06-14T17:14:50.824Z,20.88
2018-06-14T17:17:23.948Z,20.51
2018-06-14T17:19:56.009Z,20.72
2018-06-14T17:22:28.076Z,20.63
2018-06-14T17:25:00.129Z,20.80
2018-06-14T17:27:32.227Z,20.63
2018-06-14T17:32:53.821Z,20.62
2018-06-14T17:35:25.888Z,20.64
2018-06-14T17:37:58.010Z,20.50
2018-06-14T17:40:30.169Z,19.65
2018-06-14T17:43:02.315Z,20.51
2018-06-14T17:45:34.442Z,20.53
2018-06-14T17:48:06.542Z,20.39
2018-06-14T17:50:38.899Z,20.25
2018-06-14T17:56:08.940Z,19.51
2018-06-14T17:58:41.010Z,19.41
2018-06-14T18:01:13.260Z,19.23
2018-06-14T18:03:45.462Z,19.11
2018-06-14T18:06:17.795Z,19.09
2018-06-14T18:08:49.990Z,19.01
2018-06-14T18:11:22.055Z,18.91
2018-06-14T18:13:54.192Z,18.92
2018-06-14T18:16:26.292Z,18.89
2018-06-14T18:18:58.469Z,18.93
2018-06-14T18:21:30.581Z,18.61
2018-06-14T18:24:02.776Z,18.49
2018-06-14T18:26:34.823Z,18.35
2018-06-14T18:29:07.020Z,18.28
2018-06-14T18:31:39.105Z,18.30
2018-06-14T18:34:11.242Z,18.12
2018-06-14T18:36:43.315Z,18.29
2018-06-14T18:39:15.525Z,18.29
2018-06-14T18:41:47.564Z,18.20
2018-06-14T18:44:19.865Z,18.12
2018-06-14T18:46:52.082Z,18.08
2018-06-14T18:49:24.307Z,17.99
2018-06-14T18:51:56.396Z,17.77
2018-06-14T18:54:28.576Z,17.53
2018-06-14T18:57:00.776Z,17.46
2018-06-14T18:59:32.873Z,17.38
2018-06-14T19:02:05.019Z,17.14
2018-06-14T19:04:37.092Z,16.84
2018-06-14T19:07:09.155Z,16.63
2018-06-14T19:09:41.323Z,16.41
2018-06-14T19:12:13.376Z,16.25
2018-06-14T19:14:45.497Z,16.01
2018-06-14T19:17:17.718Z,15.81
2018-06-14T19:19:49.851Z,15.84
2018-06-14T19:22:21.914Z,15.78
2018-06-14T19:24:54.069Z,15.66
2018-06-14T19:27:26.131Z,15.58
2018-06-14T19:29:58.339Z,15.45
2018-06-14T19:32:30.449Z,15.34
2018-06-14T19:35:02.527Z,15.27
2018-06-14T19:37:34.667Z,15.14
2018-06-14T19:40:06.836Z,15.05
2018-06-14T19:42:38.820Z,14.93
2018-06-14T19:45:10.933Z,14.75
2018-06-14T19:47:43.075Z,14.64
2018-06-14T19:50:16.278Z,14.49
2018-06-14T19:52:48.338Z,14.43
2018-06-14T19:55:20.413Z,14.34
2018-06-14T19:57:52.481Z,14.36
2018-06-14T20:00:24.612Z,14.37
2018-06-14T20:02:56.699Z,14.28
2018-06-14T20:05:28.784Z,14.10
2018-06-14T20:08:01.152Z,13.95
2018-06-14T20:10:33.207Z,13.97
2018-06-14T20:13:05.348Z,13.95
2018-06-14T20:15:38.224Z,14.10
2018-06-14T20:18:10.384Z,14.11
2018-06-14T20:20:42.476Z,14.11
2018-06-14T20:23:14.508Z,14.08
2018-06-14T20:25:46.654Z,14.09
2018-06-14T20:28:18.816Z,14.20
2018-06-14T20:30:51.034Z,14.23
2018-06-14T20:33:23.078Z,14.35
2018-06-14T20:35:55.164Z,14.47
2018-06-14T20:38:27.241Z,14.58
2018-06-14T20:40:59.359Z,14.50
2018-06-14T20:43:31.419Z,14.44
2018-06-14T20:46:03.603Z,14.45
2018-06-14T20:48:35.636Z,14.52
2018-06-14T20:51:07.742Z,14.52
2018-06-14T20:53:39.823Z,14.54
2018-06-14T20:56:11.910Z,14.55
2018-06-14T20:58:43.979Z,14.54
2018-06-14T21:01:16.148Z,14.53
2018-06-14T21:03:48.217Z,14.43
2018-06-14T21:06:20.280Z,14.36
2018-06-14T21:08:52.369Z,14.28
2018-06-14T21:11:24.434Z,14.26
2018-06-14T21:13:56.512Z,14.26
2018-06-14T21:16:28.614Z,14.26
2018-06-14T21:19:00.700Z,14.14
2018-06-14T21:21:32.751Z,14.06
2018-06-14T21:24:04.879Z,14.03
2018-06-14T21:26:36.965Z,13.90
2018-06-14T21:29:09.015Z,13.82
2018-06-14T21:31:41.153Z,13.87
2018-06-14T21:34:14.925Z,13.80
2018-06-14T21:39:30.226Z,13.66
2018-06-14T21:42:02.517Z,13.65
2018-06-14T21:44:34.627Z,13.63
2018-06-14T21:47:06.784Z,13.63
2018-06-14T21:49:38.883Z,13.78
2018-06-14T21:52:13.074Z,13.85
2018-06-14T21:54:45.163Z,13.96
2018-06-14T21:57:17.681Z,13.98
2018-06-14T21:59:49.833Z,13.91
2018-06-14T22:02:22.453Z,13.94
2018-06-14T22:04:54.475Z,14.07
2018-06-14T22:07:28.789Z,14.04
2018-06-14T22:10:01.509Z,13.88
2018-06-14T22:12:33.574Z,13.80
2018-06-14T22:15:05.965Z,13.69
2018-06-14T22:17:38.037Z,13.47
2018-06-14T22:20:10.139Z,13.35
2018-06-14T22:22:42.246Z,13.22
2018-06-14T22:25:14.313Z,13.30
2018-06-14T22:27:46.424Z,13.12
2018-06-14T22:30:18.493Z,13.10
2018-06-14T22:33:02.004Z,13.02
2018-06-14T22:35:34.086Z,12.80
2018-06-14T22:38:06.199Z,12.67
2018-06-14T22:40:38.319Z,12.51
2018-06-14T22:43:10.433Z,12.43
2018-06-14T22:45:42.553Z,12.27
2018-06-14T22:48:14.603Z,12.20
2018-06-14T22:50:58.093Z,12.17
2018-06-14T22:53:30.166Z,12.23
2018-06-14T22:56:02.354Z,12.37
2018-06-14T22:58:34.408Z,12.33
2018-06-14T23:01:41.370Z,12.36
2018-06-14T23:04:17.622Z,12.49
2018-06-14T23:06:49.769Z,12.58
2018-06-14T23:11:31.428Z,12.57
2018-06-14T23:14:03.590Z,12.90
2018-06-14T23:16:35.859Z,12.97
2018-06-14T23:19:07.906Z,12.97
2018-06-14T23:21:40.136Z,13.03
2018-06-14T23:24:12.228Z,13.05
2018-06-14T23:26:44.338Z,13.11
2018-06-14T23:29:16.457Z,13.22
2018-06-14T23:31:48.571Z,13.33
2018-06-14T23:34:20.666Z,13.46
2018-06-14T23:36:52.808Z,13.54
2018-06-14T23:39:24.870Z,13.65
2018-06-14T23:41:56.963Z,13.71
2018-06-14T23:44:29.060Z,13.73
2018-06-14T23:47:01.125Z,13.72
2018-06-14T23:49:33.172Z,13.71
2018-06-14T23:52:05.302Z,13.68
2018-06-14T23:54:37.473Z,13.66
2018-06-14T23:57:09.538Z,13.73
2018-06-14T23:59:41.917Z,13.72
